Flight Track Log - Related Links

Times and Time Zones

All times are in EST time to prevent confusion due to time zone crossing. See the SWA2139 flight status page for this flight to view local times or setup timezone preferences in your user account.

Time Position Orientation Groundspeed Altitude Reporting Facility
EST Latitude Longitude Course Direction KTS MPH feet Rate Location/Type
Fri 07:02:02 AM 38.9333 -77.5000 258° West 153 176 1,800  Level Potomac TRACON
Fri 07:04:01 AM 38.9083 -77.6483 258° West 212 244 6,900 2,749 Climbing Washington Center
Fri 07:05:01 AM 38.8944 -77.7228 257° West 231 266 10,000 2,826 Climbing Washington Center
Fri 07:06:02 AM 38.9092 -77.8297 280° West 263 303 12,600 2,557 Climbing Washington Center
Fri 07:07:03 AM 38.9236 -77.9478 279° West 313 360 15,200 2,773 Climbing Washington Center
Fri 07:08:01 AM 38.9400 -78.0711 280° West 337 388 18,100 2,898 Climbing Washington Center
Fri 07:09:01 AM 38.9581 -78.1997 280° West 359 413 20,900 2,628 Climbing Washington Center
Fri 07:10:02 AM 38.9675 -78.3336 275° West 371 427 23,400 2,281 Climbing Washington Center
Fri 07:11:02 AM 38.9769 -78.4700 275° West 377 434 25,500 1,983 Climbing Washington Center
Fri 07:12:03 AM 38.9861 -78.6092 275° West 382 440 27,400 1,785 Climbing Washington Center
Fri 07:13:03 AM 38.9950 -78.7486 275° West 394 453 29,100 1,866 Climbing Washington Center
Fri 07:14:02 AM 39.0039 -78.8878 275° West 400 460 31,100 1,932 Climbing Washington Center
Fri 07:15:01 AM 39.0106 -79.0217 274° West 393 452 32,900 1,866 Climbing Washington Center
Fri 07:16:01 AM 39.0189 -79.1583 275° West 387 445 34,800 2,050 Climbing Washington Center
Fri 07:17:01 AM 39.0278 -79.2844 275° West 381 438 37,000 1,537 Climbing Washington Center
Fri 07:18:02 AM 39.0361 -79.4106 275° West 367 422 37,900 492 Climbing Washington Center
Fri 07:19:03 AM 39.0447 -79.5339 275° West 362 417 38,000 50 Climbing Washington Center
Fri 07:20:01 AM 39.0550 -79.6628 276° West 362 417 38,000  Level Washington Center
Fri 07:21:02 AM 39.0611 -79.7889 274° West 362 417 38,000  Level Washington Center
Fri 07:22:02 AM 39.0692 -79.9150 275° West 362 417 38,000  Level Washington Center
Fri 07:23:03 AM 39.0772 -80.0383 275° West 362 417 38,000  Level Washington Center
Fri 07:24:23 AM 39.0831 -80.1978 273° West 353 406 38,000  Level Indianapolis Center
Fri 07:25:25 AM 39.0903 -80.3222 274° West 350 403 38,000  Level Indianapolis Center
Fri 07:26:26 AM 39.0967 -80.4489 274° West 354 407 38,000  Level Indianapolis Center
Fri 07:27:27 AM 39.1175 -80.5708 282° West 358 412 38,000  Level Indianapolis Center
Fri 07:28:28 AM 39.1775 -80.7094 299° West 370 426 38,000  Level Indianapolis Center
Fri 07:29:30 AM 39.2269 -80.8264 299° West 373 429 38,000  Level Indianapolis Center
Fri 07:30:31 AM 39.2772 -80.9436 299° West 374 430 38,000  Level Indianapolis Center
Fri 07:31:32 AM 39.3267 -81.0603 299° West 372 428 38,000  Level Indianapolis Center
Fri 07:32:33 AM 39.3772 -81.1783 299° West 377 434 38,000  Level Indianapolis Center
Fri 07:33:35 AM 39.4269 -81.2958 299° West 375 432 38,000  Level Indianapolis Center
Fri 07:34:36 AM 39.4767 -81.4131 299° West 374 430 38,000  Level Indianapolis Center
Fri 07:35:37 AM 39.5267 -81.5308 299° West 375 432 38,000  Level Indianapolis Center
Fri 07:36:39 AM 39.5761 -81.6475 299° West 372 428 38,000  Level Indianapolis Center
Fri 07:37:40 AM 39.6347 -81.7892 298° West 372 428 38,000  Level Indianapolis Center
Fri 07:38:41 AM 39.6850 -81.9061 299° West 372 428 38,000  Level Indianapolis Center
Fri 07:39:43 AM 39.7278 -82.0125 298° West 371 427 38,000  Level Indianapolis Center
Fri 07:40:44 AM 39.7769 -82.1306 298° West 373 429 38,000  Level Indianapolis Center
Fri 07:41:46 AM 39.8358 -82.2731 298° West 373 429 38,000  Level Indianapolis Center
Fri 07:42:47 AM 39.8842 -82.3908 298° West 372 428 38,000  Level Indianapolis Center
Fri 07:43:48 AM 39.9325 -82.5081 298° West 370 426 38,000  Level Indianapolis Center
Fri 07:44:50 AM 39.9814 -82.6278 298° West 373 429 38,000  Level Indianapolis Center
Fri 07:45:51 AM 40.0294 -82.7464 298° West 374 430 38,000  Level Indianapolis Center
Fri 07:46:53 AM 40.0764 -82.8647 297° West 370 426 38,000  Level Indianapolis Center
Fri 07:47:54 AM 40.1253 -82.9836 298° West 374 430 38,000  Level Indianapolis Center
Fri 07:48:56 AM 40.1822 -83.1253 298° West 371 427 38,000  Level Indianapolis Center
Fri 07:49:57 AM 40.2297 -83.2447 298° West 373 429 38,000  Level Indianapolis Center
Fri 07:50:59 AM 40.2769 -83.3647 297° West 374 430 38,000  Level Indianapolis Center
Fri 07:52:00 AM 40.3247 -83.4839 298° West 374 430 38,000  Level Indianapolis Center
Fri 07:53:02 AM 40.3728 -83.6058 297° West 377 434 38,000  Level Indianapolis Center
Fri 07:54:03 AM 40.4206 -83.7272 297° West 378 435 38,000  Level Indianapolis Center
Fri 07:55:05 AM 40.4689 -83.8506 297° West 382 440 38,000  Level Indianapolis Center
Fri 07:56:06 AM 40.5267 -84.0000 297° West 384 442 38,000  Level Indianapolis Center
Fri 07:57:08 AM 40.5750 -84.1236 297° West 384 442 38,000 -195 Level Indianapolis Center
Fri 07:58:09 AM 40.6231 -84.2461 297° West 379 436 37,600 -1,561 Descending Indianapolis Center
Fri 07:59:11 AM 40.6681 -84.3672 296° West 371 427 34,800 -2,732 Descending Indianapolis Center
Fri 08:00:12 AM 40.7158 -84.4875 298° West 372 428 32,000 -2,341 Descending Indianapolis Center
Fri 08:01:14 AM 40.7611 -84.6086 296° West 371 427 30,000 -1,176 Descending Indianapolis Center
Fri 08:01:54 AM 40.7919 -84.6928 296° West 366 421 30,000  Level Chicago Center
Fri 08:02:56 AM 40.8406 -84.8192 297° West 378 435 30,000  Level Chicago Center
Fri 08:03:58 AM 40.8903 -84.9506 297° West 394 453 30,000  Level Chicago Center
Fri 08:04:59 AM 40.9669 -85.0986 304° West 408 470 30,000  Level Chicago Center
Fri 08:06:01 AM 41.0403 -85.2169 309° West 414 476 30,000  Level Chicago Center
Fri 08:07:03 AM 41.1122 -85.3381 308° West 417 480 30,000 -1,415 Level Chicago Center
Fri 08:08:04 AM 41.1847 -85.4575 309° West 415 478 27,100 -2,780 Descending Chicago Center
Fri 08:09:06 AM 41.2561 -85.5767 309° West 411 473 24,300 -1,805 Descending Chicago Center
Fri 08:10:07 AM 41.3239 -85.6883 309° West 388 447 23,400 -1,366 Descending Chicago Center
Fri 08:11:09 AM 41.3842 -85.7903 308° West 355 409 21,500 -1,902 Descending Chicago Center
Fri 08:12:10 AM 41.4442 -85.8917 308° West 347 399 19,500 -2,000 Descending Chicago Center
Fri 08:13:12 AM 41.5053 -85.9956 308° West 352 405 17,400 -1,951 Descending Chicago Center
Fri 08:14:13 AM 41.5233 -86.1111 282° West 333 383 15,500 -2,049 Descending Chicago Center
Fri 08:15:15 AM 41.5239 -86.2494 270° West 314 361 13,200 -1,951 Descending Chicago Center
Fri 08:16:16 AM 41.5225 -86.3633 269° West 310 357 11,500 -1,268 Descending Chicago Center
Fri 08:17:18 AM 41.5217 -86.4719 269° West 296 341 10,600 -726 Descending Chicago Center
Fri 08:18:20 AM 41.5214 -86.5761 270° West 281 323 10,000 -290 Descending Chicago Center
Fri 08:19:22 AM 41.5208 -86.6786 270° West 281 323 10,000  Level Chicago Center
Fri 08:20:23 AM 41.5197 -86.7808 269° West 277 319 10,000  Level Chicago Center
Fri 08:21:25 AM 41.5192 -86.8686 270° West 248 285 10,000 -634 Level Chicago Center
Fri 08:22:26 AM 41.5178 -86.9706 269° West 232 267 8,700 -1,317 Descending Chicago Center
Fri 08:23:28 AM 41.5167 -87.0628 269° West 243 280 7,300 -1,366 Descending Chicago Center
Fri 08:24:29 AM 41.5192 -87.1539 272° West 247 284 5,900 -1,171 Descending Chicago Center
Fri 08:25:31 AM 41.5456 -87.2403 292° West 252 290 4,900 -871 Descending Chicago Center
Fri 08:26:33 AM 41.5714 -87.3272 292° West 252 290 4,100 -439 Descending Chicago Center
Fri 08:27:34 AM 41.5772 -87.4111 275° West 243 280 4,000 -49 Descending Chicago Center
Fri 08:28:36 AM 41.5736 -87.4972 267° West 237 273 4,000  Level Chicago Center
Fri 08:29:37 AM 41.5703 -87.6011 268° West 236 272 4,000 -293 Level Chicago Center
Fri 08:30:39 AM 41.5683 -87.6867 268° West 233 268 3,400 -484 Descending Chicago Center
Fri 08:31:41 AM 41.5667 -87.7750 269° West 236 272 3,000 -195 Descending Chicago Center
Fri 08:32:42 AM 41.5808 -87.8533 284° West 233 268 3,000  Level Chicago Center
Fri 08:33:44 AM 41.6186 -87.9114 311° West 218 251 3,000 -244 Level Chicago Center
Fri 08:34:45 AM 41.6733 -87.8936 14° North 220 253 2,500 -244 Descending Chicago Center
Fri 08:35:47 AM 41.7172 -87.8383 43° Northeast 195 224 2,500 -387 Level Chicago Center
Fri 08:36:49 AM 41.7472 -87.8006 43° Northeast 170 196 1,700 -732 Descending Chicago Center
Fri 08:37:50 AM 41.7697 -87.7711 44° Northeast 136 157 1,000 -689 Descending Chicago Center
Fri 08:39:00 AM 41.7833 -87.7500 340° North  Level FlightAware Approximate

Login

Don't have an account? Register now (free) for customized features, flight alerts, and more!